createdAt,value
2019-06-26T00:01:53.515Z,23.50
2019-06-26T00:04:40.735Z,23.50
2019-06-26T00:07:27.751Z,23.50
2019-06-26T00:10:14.662Z,23.60
2019-06-26T00:13:02.042Z,23.60
2019-06-26T00:15:49.375Z,23.60
2019-06-26T00:18:36.715Z,23.50
2019-06-26T00:21:23.848Z,23.50
2019-06-26T00:24:10.886Z,23.40
2019-06-26T00:26:58.009Z,23.20
2019-06-26T00:29:45.142Z,23.10
2019-06-26T00:32:32.049Z,23.10
2019-06-26T00:35:19.051Z,23.10
2019-06-26T00:38:06.138Z,23.10
2019-06-26T00:40:53.132Z,23.00
2019-06-26T00:43:42.625Z,22.90
2019-06-26T00:46:29.524Z,22.90
2019-06-26T00:49:16.748Z,22.90
2019-06-26T00:52:03.651Z,22.90
2019-06-26T00:54:50.701Z,22.70
2019-06-26T00:57:38.010Z,22.60
2019-06-26T01:00:30.974Z,22.50
2019-06-26T01:03:18.649Z,22.40
2019-06-26T01:06:07.310Z,22.50
2019-06-26T01:08:54.130Z,22.70
2019-06-26T01:11:41.098Z,22.70
2019-06-26T01:14:28.551Z,22.80
2019-06-26T01:17:15.810Z,22.80
2019-06-26T01:20:04.167Z,22.70
2019-06-26T01:22:51.236Z,22.60
2019-06-26T01:25:38.610Z,22.50
2019-06-26T01:28:25.655Z,22.50
2019-06-26T01:31:12.729Z,22.70
2019-06-26T01:33:59.803Z,22.80
2019-06-26T01:36:46.857Z,22.90
2019-06-26T01:39:34.119Z,22.90
2019-06-26T01:42:21.298Z,22.70
2019-06-26T01:45:08.946Z,22.60
2019-06-26T01:47:56.035Z,22.60
2019-06-26T01:50:43.131Z,22.40
2019-06-26T01:53:30.148Z,22.50
2019-06-26T01:56:17.186Z,22.50
2019-06-26T01:59:04.281Z,22.50
2019-06-26T02:01:51.635Z,22.40
2019-06-26T02:04:38.651Z,22.50
2019-06-26T02:07:25.966Z,22.40
2019-06-26T02:10:13.839Z,22.20
2019-06-26T02:13:00.821Z,22.10
2019-06-26T02:15:47.883Z,22.00
2019-06-26T02:18:38.692Z,22.00
2019-06-26T02:21:25.835Z,22.00
2019-06-26T02:24:12.855Z,21.90
2019-06-26T02:26:59.840Z,21.90
2019-06-26T02:29:46.601Z,21.90
2019-06-26T02:32:33.631Z,21.80
2019-06-26T02:35:20.915Z,21.60
2019-06-26T02:38:08.180Z,21.60
2019-06-26T02:40:55.578Z,21.50
2019-06-26T02:43:42.382Z,21.50
2019-06-26T02:46:29.445Z,21.40
2019-06-26T02:49:16.758Z,21.50
2019-06-26T02:52:03.552Z,21.60
2019-06-26T02:54:51.103Z,21.60
2019-06-26T02:57:37.906Z,21.50
2019-06-26T03:00:24.681Z,21.40
2019-06-26T03:03:11.491Z,21.40
2019-06-26T03:05:58.623Z,21.30
2019-06-26T03:08:45.586Z,21.40
2019-06-26T03:11:32.851Z,21.50
2019-06-26T03:14:19.921Z,21.40
2019-06-26T03:17:06.756Z,21.30
2019-06-26T03:19:53.751Z,21.30
2019-06-26T03:22:40.494Z,21.30
2019-06-26T03:25:27.617Z,21.30
2019-06-26T03:28:14.596Z,21.40
2019-06-26T03:31:01.752Z,21.50
2019-06-26T03:33:49.065Z,21.60
2019-06-26T03:36:36.038Z,21.70
2019-06-26T03:39:22.861Z,21.70
2019-06-26T03:42:09.663Z,21.80
2019-06-26T03:44:56.880Z,21.90
2019-06-26T03:47:43.687Z,21.90
2019-06-26T03:50:30.709Z,21.80
2019-06-26T03:53:16.619Z,21.80
2019-06-26T03:56:03.770Z,21.80
2019-06-26T03:58:51.015Z,21.70
2019-06-26T04:01:38.151Z,21.70
2019-06-26T04:04:24.991Z,21.80
2019-06-26T04:07:11.988Z,21.70
2019-06-26T04:09:59.310Z,21.70
2019-06-26T04:12:46.606Z,21.80
2019-06-26T04:15:41.894Z,22.00
2019-06-26T04:18:22.849Z,22.10
2019-06-26T04:21:09.925Z,22.20
2019-06-26T04:23:56.631Z,22.30
2019-06-26T04:26:43.700Z,22.40
2019-06-26T04:29:30.532Z,22.50
2019-06-26T04:32:17.539Z,22.60
2019-06-26T04:35:05.472Z,22.70
2019-06-26T04:37:52.760Z,22.80
2019-06-26T04:40:39.983Z,22.90
2019-06-26T04:43:27.362Z,23.00
2019-06-26T04:46:14.662Z,23.10
2019-06-26T04:49:01.883Z,23.20
2019-06-26T04:51:48.928Z,23.30
2019-06-26T04:54:36.027Z,23.40
2019-06-26T04:57:23.234Z,23.60
2019-06-26T05:00:13.934Z,23.60
2019-06-26T05:03:01.254Z,23.80
2019-06-26T05:05:48.636Z,23.90
2019-06-26T05:08:36.076Z,24.00
2019-06-26T05:11:23.056Z,24.20
2019-06-26T05:14:10.426Z,24.40
2019-06-26T05:16:57.547Z,24.50
2019-06-26T05:19:44.643Z,24.70
2019-06-26T05:22:31.664Z,24.80
2019-06-26T05:25:19.046Z,24.90
2019-06-26T05:28:08.450Z,25.10
2019-06-26T05:30:55.197Z,25.30
2019-06-26T05:33:42.221Z,25.30
2019-06-26T05:36:29.342Z,25.40
2019-06-26T05:39:16.227Z,25.40
2019-06-26T05:42:06.559Z,25.50
2019-06-26T05:44:52.091Z,25.40
2019-06-26T05:47:39.355Z,25.50
2019-06-26T05:50:26.553Z,25.60
2019-06-26T05:53:13.694Z,25.80
2019-06-26T05:56:01.139Z,25.90
2019-06-26T05:58:55.813Z,26.00
2019-06-26T06:01:43.169Z,26.10
2019-06-26T06:04:30.549Z,26.20
2019-06-26T06:07:17.908Z,26.20
2019-06-26T06:10:07.465Z,26.30
2019-06-26T06:12:54.943Z,26.40
2019-06-26T06:15:52.456Z,26.60
2019-06-26T06:18:40.060Z,26.60
2019-06-26T06:21:27.075Z,26.70
2019-06-26T06:24:14.163Z,26.70
2019-06-26T06:27:01.023Z,26.80
2019-06-26T06:29:48.074Z,26.90
2019-06-26T06:32:36.149Z,27.00
2019-06-26T06:35:23.267Z,27.00
2019-06-26T06:38:10.592Z,27.10
2019-06-26T06:40:57.616Z,27.10
2019-06-26T06:43:44.967Z,27.30
2019-06-26T06:46:32.167Z,27.40
2019-06-26T06:49:19.394Z,27.50
2019-06-26T06:52:06.563Z,27.60
2019-06-26T06:54:53.294Z,27.70
2019-06-26T06:57:40.453Z,27.90
2019-06-26T07:00:29.494Z,27.90
2019-06-26T07:03:16.554Z,28.00
2019-06-26T07:06:03.583Z,28.10
2019-06-26T07:08:50.350Z,28.20
2019-06-26T07:11:37.417Z,28.30
2019-06-26T07:14:24.518Z,28.20
2019-06-26T07:17:20.657Z,28.40
2019-06-26T07:20:00.135Z,28.60
2019-06-26T07:22:46.854Z,28.70
2019-06-26T07:25:34.004Z,28.80
2019-06-26T07:28:21.065Z,28.80
2019-06-26T07:31:08.471Z,28.90
2019-06-26T07:33:56.055Z,28.90
2019-06-26T07:36:43.062Z,28.80
2019-06-26T07:39:30.058Z,28.90
2019-06-26T07:42:16.790Z,29.00
2019-06-26T07:45:04.631Z,29.00
2019-06-26T07:47:51.414Z,29.20
2019-06-26T07:50:38.396Z,29.30
2019-06-26T07:53:25.803Z,29.30
2019-06-26T07:56:12.883Z,29.50
2019-06-26T07:58:59.920Z,29.70
2019-06-26T08:01:47.100Z,29.80
2019-06-26T08:04:34.086Z,29.90
2019-06-26T08:07:21.185Z,29.80
2019-06-26T08:10:08.938Z,29.80
2019-06-26T08:12:57.291Z,30.20
2019-06-26T08:15:44.749Z,30.30
2019-06-26T08:18:31.977Z,30.50
2019-06-26T08:21:18.802Z,30.50
2019-06-26T08:24:05.792Z,30.60
2019-06-26T08:26:52.847Z,30.80
2019-06-26T08:29:39.978Z,30.80
2019-06-26T08:32:26.990Z,30.80
2019-06-26T08:35:15.110Z,31.00
2019-06-26T08:38:11.189Z,31.20
2019-06-26T08:40:50.813Z,31.30
2019-06-26T08:43:37.533Z,31.50
2019-06-26T08:46:24.534Z,31.50
2019-06-26T08:49:24.843Z,31.60
2019-06-26T08:52:00.554Z,31.70
2019-06-26T08:54:47.579Z,31.80
2019-06-26T08:57:34.648Z,31.90
2019-06-26T09:00:22.228Z,32.10
2019-06-26T09:03:09.295Z,32.20
2019-06-26T09:05:56.370Z,32.30
2019-06-26T09:08:43.465Z,32.50
2019-06-26T09:11:30.722Z,32.80
2019-06-26T09:14:17.919Z,33.10
2019-06-26T09:17:05.103Z,33.10
2019-06-26T09:19:52.196Z,33.20
2019-06-26T09:22:39.175Z,33.20
2019-06-26T09:25:26.185Z,33.50
2019-06-26T09:28:13.343Z,33.70
2019-06-26T09:31:00.054Z,33.80
2019-06-26T09:33:47.184Z,33.90
2019-06-26T09:36:34.497Z,34.20
2019-06-26T09:39:21.511Z,34.40
2019-06-26T09:42:08.627Z,34.40
2019-06-26T09:44:55.784Z,34.60
2019-06-26T09:47:42.605Z,34.60
2019-06-26T09:50:29.652Z,34.90
2019-06-26T09:53:16.949Z,35.10
2019-06-26T09:56:03.718Z,35.40
2019-06-26T09:58:50.739Z,35.40
2019-06-26T10:01:37.534Z,35.30
2019-06-26T10:04:24.802Z,35.70
2019-06-26T10:07:11.788Z,35.90
2019-06-26T10:09:58.891Z,35.90
2019-06-26T10:12:49.350Z,36.00
2019-06-26T10:15:37.388Z,36.10
2019-06-26T10:18:24.518Z,36.40
2019-06-26T10:21:11.861Z,36.30
2019-06-26T10:23:59.273Z,36.40
2019-06-26T10:26:46.111Z,36.40
2019-06-26T10:29:33.298Z,36.50
2019-06-26T10:32:21.574Z,36.50
2019-06-26T10:35:09.205Z,36.60
2019-06-26T10:37:56.534Z,36.90
2019-06-26T10:40:43.577Z,37.20
2019-06-26T10:43:30.901Z,37.50
2019-06-26T10:46:18.148Z,36.90
2019-06-26T10:49:05.449Z,36.60
2019-06-26T10:51:52.456Z,36.90
2019-06-26T10:54:39.411Z,37.10
2019-06-26T10:57:26.470Z,37.10
2019-06-26T11:00:15.136Z,37.30
2019-06-26T11:03:02.476Z,37.40
2019-06-26T11:05:49.679Z,37.60
2019-06-26T11:08:36.703Z,37.70
2019-06-26T11:11:23.495Z,37.80
2019-06-26T11:14:10.196Z,37.90
2019-06-26T11:16:57.282Z,37.60
2019-06-26T11:19:44.733Z,37.70
2019-06-26T11:22:31.622Z,38.10
2019-06-26T11:25:20.737Z,38.30
2019-06-26T11:28:07.710Z,38.50
2019-06-26T11:30:54.523Z,38.30
2019-06-26T11:33:41.504Z,38.50
2019-06-26T11:36:28.731Z,38.70
2019-06-26T11:39:16.099Z,38.90
2019-06-26T11:42:03.215Z,38.80
2019-06-26T11:44:50.210Z,39.00
2019-06-26T11:47:37.840Z,39.10
2019-06-26T11:50:25.619Z,39.30
2019-06-26T11:53:12.444Z,38.70
2019-06-26T11:56:00.011Z,38.90
2019-06-26T11:58:47.406Z,39.30
2019-06-26T12:01:37.342Z,39.20
2019-06-26T12:04:24.547Z,39.30
2019-06-26T12:07:11.278Z,39.10
2019-06-26T12:09:58.570Z,39.20
2019-06-26T12:12:45.655Z,39.80
2019-06-26T12:15:32.439Z,40.00
2019-06-26T12:18:19.747Z,40.10
2019-06-26T12:21:07.251Z,40.50
2019-06-26T12:23:54.304Z,40.70
2019-06-26T12:26:41.462Z,40.60
2019-06-26T12:29:28.660Z,40.10
2019-06-26T12:32:15.748Z,39.60
2019-06-26T12:35:04.500Z,39.60
2019-06-26T12:37:51.571Z,39.60
2019-06-26T12:40:38.583Z,38.60
2019-06-26T12:43:25.871Z,38.40
2019-06-26T12:46:12.903Z,38.80
2019-06-26T12:49:00.771Z,39.40
2019-06-26T12:51:47.809Z,39.90
2019-06-26T12:54:34.919Z,40.20
2019-06-26T12:57:22.311Z,40.30
2019-06-26T13:00:14.196Z,40.20
2019-06-26T13:03:01.121Z,40.30
2019-06-26T13:05:48.223Z,40.20
2019-06-26T13:08:35.225Z,40.20
2019-06-26T13:11:22.035Z,40.40
2019-06-26T13:14:09.534Z,40.20
2019-06-26T13:16:56.577Z,40.40
2019-06-26T13:19:44.714Z,40.50
2019-06-26T13:22:31.495Z,40.70
2019-06-26T13:25:18.569Z,40.70
2019-06-26T13:28:05.410Z,40.60
2019-06-26T13:30:53.491Z,40.40
2019-06-26T13:33:41.034Z,40.10
2019-06-26T13:36:27.844Z,40.20
2019-06-26T13:39:15.045Z,39.80
2019-06-26T13:42:02.346Z,39.80
2019-06-26T13:44:49.826Z,40.00
2019-06-26T13:47:37.067Z,39.70
2019-06-26T13:50:24.666Z,39.80
2019-06-26T13:53:11.661Z,40.20
2019-06-26T13:55:58.802Z,40.10
2019-06-26T13:58:45.901Z,40.00
2019-06-26T14:01:33.139Z,40.10
2019-06-26T14:04:20.187Z,40.60
2019-06-26T14:07:08.666Z,40.70
2019-06-26T14:09:56.276Z,40.70
2019-06-26T14:12:43.093Z,40.20
2019-06-26T14:15:29.919Z,40.30
2019-06-26T14:18:17.007Z,39.60
2019-06-26T14:21:03.724Z,39.50
2019-06-26T14:23:50.837Z,39.50
2019-06-26T14:26:37.645Z,39.80
2019-06-26T14:29:24.431Z,39.70
2019-06-26T14:32:11.479Z,39.70
2019-06-26T14:34:58.618Z,39.70
2019-06-26T14:37:45.870Z,39.90
2019-06-26T14:40:33.198Z,40.10
2019-06-26T14:43:20.575Z,40.40
2019-06-26T14:46:07.536Z,40.60
2019-06-26T14:48:54.576Z,40.90
2019-06-26T14:51:47.180Z,40.90
2019-06-26T14:54:30.594Z,41.10
2019-06-26T14:57:17.607Z,41.20
2019-06-26T15:00:06.648Z,41.10
2019-06-26T15:02:53.714Z,41.00
2019-06-26T15:05:40.778Z,40.70
2019-06-26T15:08:27.482Z,40.30
2019-06-26T15:11:15.661Z,40.40
2019-06-26T15:14:03.575Z,40.40
2019-06-26T15:16:50.692Z,40.80
2019-06-26T15:19:37.663Z,40.60
2019-06-26T15:22:24.986Z,40.90
2019-06-26T15:25:12.487Z,41.10
2019-06-26T15:27:59.740Z,41.30
2019-06-26T15:30:46.868Z,41.40
2019-06-26T15:33:36.578Z,41.10
2019-06-26T15:36:22.429Z,41.20
2019-06-26T15:39:09.484Z,41.20
2019-06-26T15:41:56.888Z,41.00
2019-06-26T15:44:44.220Z,40.60
2019-06-26T15:47:30.933Z,40.80
2019-06-26T15:50:17.925Z,41.00
2019-06-26T15:53:05.364Z,40.90
2019-06-26T15:55:52.472Z,41.30
2019-06-26T15:58:39.595Z,41.30
2019-06-26T16:01:26.790Z,41.40
2019-06-26T16:04:13.796Z,41.10
2019-06-26T16:07:00.861Z,41.20
2019-06-26T16:09:48.091Z,41.40
2019-06-26T16:12:35.141Z,40.90
2019-06-26T16:15:21.936Z,40.90
2019-06-26T16:18:15.786Z,40.80
2019-06-26T16:21:02.705Z,40.60
2019-06-26T16:23:50.176Z,40.80
2019-06-26T16:26:36.953Z,41.10
2019-06-26T16:29:23.986Z,41.10
2019-06-26T16:32:11.236Z,41.40
2019-06-26T16:34:58.262Z,41.50
2019-06-26T16:37:45.042Z,41.40
2019-06-26T16:40:32.235Z,41.80
2019-06-26T16:43:18.998Z,42.10
2019-06-26T16:46:05.766Z,42.40
2019-06-26T16:48:52.906Z,42.50
2019-06-26T16:51:39.962Z,42.10
2019-06-26T16:54:26.984Z,41.60
2019-06-26T16:57:14.160Z,41.20
2019-06-26T17:00:09.689Z,41.00
2019-06-26T17:02:50.047Z,40.90
2019-06-26T17:05:37.284Z,41.10
2019-06-26T17:08:25.618Z,41.40
2019-06-26T17:11:12.714Z,41.80
2019-06-26T17:13:59.973Z,41.60
2019-06-26T17:16:47.071Z,41.50
2019-06-26T17:19:34.678Z,41.40
2019-06-26T17:22:21.690Z,41.50
2019-06-26T17:25:09.450Z,41.40
2019-06-26T17:27:56.558Z,41.20
2019-06-26T17:30:43.404Z,41.30
2019-06-26T17:33:30.428Z,41.50
2019-06-26T17:36:17.775Z,41.60
2019-06-26T17:39:06.763Z,41.00
2019-06-26T17:41:54.020Z,40.80
2019-06-26T17:44:47.459Z,40.60
2019-06-26T17:47:34.494Z,40.60
2019-06-26T17:50:21.654Z,40.40
2019-06-26T17:53:21.104Z,40.60
2019-06-26T17:55:57.734Z,40.50
2019-06-26T17:58:44.856Z,40.40
2019-06-26T18:01:31.991Z,40.10
2019-06-26T18:04:19.031Z,39.60
2019-06-26T18:07:06.099Z,39.30
2019-06-26T18:09:53.246Z,38.80
2019-06-26T18:12:40.162Z,38.40
2019-06-26T18:15:27.340Z,38.00
2019-06-26T18:18:14.198Z,37.70
2019-06-26T18:21:01.174Z,37.30
2019-06-26T18:23:48.435Z,36.90
2019-06-26T18:26:35.688Z,36.60
2019-06-26T18:29:23.127Z,36.40
2019-06-26T18:32:10.146Z,36.10
2019-06-26T18:34:57.258Z,35.90
2019-06-26T18:37:44.109Z,35.70
2019-06-26T18:40:31.276Z,35.40
2019-06-26T18:43:17.986Z,35.30
2019-06-26T18:46:05.148Z,35.10
2019-06-26T18:48:52.102Z,35.10
2019-06-26T18:51:39.181Z,35.00
2019-06-26T18:54:26.483Z,34.90
2019-06-26T18:57:13.723Z,34.70
2019-06-26T19:00:00.636Z,34.60
2019-06-26T19:02:47.583Z,34.40
2019-06-26T19:05:34.731Z,34.30
2019-06-26T19:08:21.943Z,34.10
2019-06-26T19:11:09.493Z,33.80
2019-06-26T19:13:56.846Z,33.70
2019-06-26T19:16:43.747Z,33.50
2019-06-26T19:19:30.632Z,33.50
2019-06-26T19:22:17.467Z,33.50
2019-06-26T19:25:08.855Z,33.30
2019-06-26T19:27:56.030Z,33.30
2019-06-26T19:30:43.167Z,33.10
2019-06-26T19:33:30.491Z,33.00
2019-06-26T19:36:17.752Z,32.90
2019-06-26T19:39:06.671Z,32.90
2019-06-26T19:41:54.110Z,32.70
2019-06-26T19:44:41.098Z,32.70
2019-06-26T19:47:28.264Z,32.60
2019-06-26T19:50:15.832Z,32.50
2019-06-26T19:53:02.922Z,32.50
2019-06-26T19:55:50.177Z,32.50
2019-06-26T19:58:37.227Z,32.30
2019-06-26T20:01:24.690Z,32.30
2019-06-26T20:04:11.697Z,32.30
2019-06-26T20:06:58.852Z,32.30
2019-06-26T20:09:46.302Z,32.20
2019-06-26T20:12:33.732Z,32.20
2019-06-26T20:15:21.001Z,32.10
2019-06-26T20:18:07.787Z,32.10
2019-06-26T20:20:54.904Z,32.10
2019-06-26T20:23:42.588Z,31.90
2019-06-26T20:26:29.617Z,31.90
2019-06-26T20:29:16.575Z,31.70
2019-06-26T20:32:03.682Z,31.70
2019-06-26T20:34:50.876Z,31.50
2019-06-26T20:37:38.167Z,31.40
2019-06-26T20:40:25.246Z,31.30
2019-06-26T20:43:12.456Z,31.20
2019-06-26T20:45:59.468Z,31.00
2019-06-26T20:48:46.490Z,31.00
2019-06-26T20:51:33.558Z,30.80
2019-06-26T20:54:20.606Z,30.70
2019-06-26T20:57:07.345Z,30.80
2019-06-26T20:59:54.358Z,30.60
2019-06-26T21:02:41.430Z,30.50
2019-06-26T21:05:29.090Z,30.40
2019-06-26T21:08:16.643Z,30.20
2019-06-26T21:11:03.712Z,30.20
2019-06-26T21:13:50.787Z,30.10
2019-06-26T21:16:38.007Z,30.10
2019-06-26T21:19:25.283Z,30.10
2019-06-26T21:22:12.040Z,30.00
2019-06-26T21:24:58.837Z,29.90
2019-06-26T21:27:46.048Z,29.90
2019-06-26T21:30:33.073Z,29.70
2019-06-26T21:33:19.902Z,29.60
2019-06-26T21:36:06.994Z,29.50
2019-06-26T21:38:54.403Z,29.60
2019-06-26T21:41:41.673Z,29.50
2019-06-26T21:44:28.531Z,29.40
2019-06-26T21:47:15.690Z,29.40
2019-06-26T21:50:02.905Z,29.30
2019-06-26T21:52:50.274Z,29.20
2019-06-26T21:55:37.425Z,29.30
2019-06-26T21:58:24.664Z,29.20
2019-06-26T22:01:12.062Z,29.20
2019-06-26T22:03:58.802Z,29.20
2019-06-26T22:06:46.062Z,29.20
2019-06-26T22:09:33.211Z,29.10
2019-06-26T22:12:20.284Z,29.00
2019-06-26T22:15:07.434Z,29.00
2019-06-26T22:17:54.482Z,29.00
2019-06-26T22:20:41.762Z,29.00
2019-06-26T22:23:29.254Z,29.00
2019-06-26T22:26:16.090Z,28.90
2019-06-26T22:29:03.191Z,28.90
2019-06-26T22:31:50.286Z,28.90
2019-06-26T22:34:37.648Z,28.70
2019-06-26T22:37:24.881Z,28.70
2019-06-26T22:40:11.917Z,28.70
2019-06-26T22:42:59.281Z,28.70
2019-06-26T22:45:46.074Z,28.50
2019-06-26T22:48:33.127Z,28.40
2019-06-26T22:51:20.687Z,28.30
2019-06-26T22:54:07.531Z,28.30
2019-06-26T22:56:54.342Z,28.20
2019-06-26T22:59:41.822Z,28.10
2019-06-26T23:02:28.799Z,28.00
2019-06-26T23:05:15.916Z,27.90
2019-06-26T23:08:02.931Z,28.00
2019-06-26T23:10:50.083Z,28.10
2019-06-26T23:13:37.131Z,28.10
2019-06-26T23:16:24.399Z,28.00
2019-06-26T23:19:14.931Z,27.90
2019-06-26T23:22:00.735Z,27.90
2019-06-26T23:24:47.899Z,27.80
2019-06-26T23:27:34.967Z,27.80
2019-06-26T23:30:22.489Z,27.80
2019-06-26T23:33:09.666Z,27.70
2019-06-26T23:35:56.739Z,27.70
2019-06-26T23:38:44.063Z,27.70
2019-06-26T23:41:30.888Z,27.70
2019-06-26T23:44:18.128Z,27.60
2019-06-26T23:47:05.531Z,27.40
2019-06-26T23:49:52.794Z,27.40
2019-06-26T23:52:39.868Z,27.40
2019-06-26T23:55:26.702Z,27.30
2019-06-26T23:58:15.231Z,27.30
